Time;durP1;ratioP1;P1;durP2;ratioP2;P2;SDS_P1;SDS_P2;PMS_P1;PMS_P2;Temp;Humidity;BMP_temperature;BMP_pressure;BME280_temperature;BME280_humidity;BME280_pressure;Samples;Min_cycle;Max_cycle;Signal;HPM_P1;HPM_P2
2023/10/25 00:00:12;;;;;;;22.70;9.27;;;;;;;;;;5013339;28;20056;-83
2023/10/25 00:02:40;;;;;;;20.23;8.45;;;;;;;;;;5014637;28;20046;-84
2023/10/25 00:05:07;;;;;;;18.98;8.65;;;;;;;;;;5012387;28;20074;-84
2023/10/25 00:07:34;;;;;;;7.82;6.88;;;;;;;;;;5013691;28;20057;-84
2023/10/25 00:10:02;;;;;;;12.65;7.97;;;;;;;;;;5012271;28;20100;-83
2023/10/25 00:12:29;;;;;;;11.45;7.40;;;;;;;;;;5013692;28;20053;-83
2023/10/25 00:14:56;;;;;;;10.48;6.10;;;;;;;;;;5012435;28;20053;-83
2023/10/25 00:17:24;;;;;;;6.60;5.53;;;;;;;;;;5012378;28;20181;-83
2023/10/25 00:19:52;;;;;;;9.77;6.82;;;;;;;;;;5012789;28;20467;-83
2023/10/25 00:22:19;;;;;;;5.88;5.32;;;;;;;;;;5012491;28;20068;-83
2023/10/25 00:24:46;;;;;;;9.75;6.25;;;;;;;;;;5013904;28;20112;-83
2023/10/25 00:27:14;;;;;;;7.00;5.88;;;;;;;;;;5012030;28;20081;-83
2023/10/25 00:29:41;;;;;;;19.45;6.30;;;;;;;;;;5013826;28;20049;-83
2023/10/25 00:32:14;;;;;;;15.10;5.78;;;;;;;;;;5011864;28;20054;-83
2023/10/25 00:34:42;;;;;;;5.13;4.63;;;;;;;;;;5014410;28;20448;-84
2023/10/25 00:37:09;;;;;;;8.38;5.40;;;;;;;;;;5015601;28;20054;-83
2023/10/25 00:39:37;;;;;;;4.93;4.32;;;;;;;;;;5017374;28;20081;-83
2023/10/25 00:42:04;;;;;;;8.68;5.10;;;;;;;;;;5017013;28;20060;-83
2023/10/25 00:44:32;;;;;;;6.72;5.10;;;;;;;;;;5017082;28;20050;-84
2023/10/25 00:47:00;;;;;;;10.05;5.45;;;;;;;;;;5016950;28;20057;-84
2023/10/25 00:49:28;;;;;;;11.45;5.13;;;;;;;;;;5017368;28;20073;-83
2023/10/25 00:51:56;;;;;;;7.72;4.78;;;;;;;;;;5016762;28;20057;-82
2023/10/25 00:54:23;;;;;;;5.13;4.68;;;;;;;;;;5018018;28;20100;-83
2023/10/25 00:56:51;;;;;;;8.43;4.93;;;;;;;;;;5017321;28;20100;-84
2023/10/25 00:59:19;;;;;;;8.27;4.80;;;;;;;;;;5016269;28;20084;-84
2023/10/25 01:01:47;;;;;;;4.47;4.13;;;;;;;;;;5017347;28;20052;-83
2023/10/25 01:04:14;;;;;;;4.05;3.75;;;;;;;;;;5016858;28;20061;-83
2023/10/25 01:06:42;;;;;;;8.43;4.55;;;;;;;;;;5017778;28;20057;-83
2023/10/25 01:09:09;;;;;;;4.40;4.10;;;;;;;;;;5016466;28;20046;-83
2023/10/25 01:11:36;;;;;;;9.45;4.93;;;;;;;;;;5018938;28;20101;-83
2023/10/25 01:14:05;;;;;;;6.22;4.28;;;;;;;;;;5017667;28;20046;-83
2023/10/25 01:16:32;;;;;;;6.00;4.55;;;;;;;;;;5018016;28;20049;-83
2023/10/25 01:18:59;;;;;;;4.40;4.00;;;;;;;;;;5017116;28;20057;-83
2023/10/25 01:21:26;;;;;;;6.05;4.53;;;;;;;;;;5021212;28;20068;-84
2023/10/25 01:23:54;;;;;;;4.20;3.80;;;;;;;;;;5022767;28;20050;-84
2023/10/25 01:26:21;;;;;;;5.03;4.15;;;;;;;;;;5020254;28;20042;-84
2023/10/25 01:28:48;;;;;;;4.75;4.35;;;;;;;;;;5023990;28;20112;-84
2023/10/25 01:31:16;;;;;;;5.97;4.20;;;;;;;;;;5017660;28;20413;-84
2023/10/25 01:33:45;;;;;;;3.92;3.63;;;;;;;;;;5015939;28;20057;-83
2023/10/25 01:36:12;;;;;;;6.70;3.55;;;;;;;;;;5015962;28;20417;-84
2023/10/25 01:38:39;;;;;;;7.68;3.90;;;;;;;;;;5015406;28;20099;-84
2023/10/25 01:41:09;;;;;;;6.78;3.72;;;;;;;;;;5016807;28;20499;-84
2023/10/25 01:43:36;;;;;;;4.57;3.58;;;;;;;;;;5015464;28;20045;-84
2023/10/25 01:46:03;;;;;;;6.93;4.07;;;;;;;;;;5017151;28;20050;-84
2023/10/25 01:48:31;;;;;;;3.80;3.50;;;;;;;;;;5017549;28;20056;-83
2023/10/25 01:50:59;;;;;;;6.38;4.40;;;;;;;;;;5017487;28;20049;-83
2023/10/25 01:53:26;;;;;;;4.40;3.97;;;;;;;;;;5015707;28;20057;-84
2023/10/25 01:55:53;;;;;;;5.20;4.07;;;;;;;;;;5015592;28;20054;-83
2023/10/25 01:58:21;;;;;;;7.15;4.70;;;;;;;;;;5015877;28;20076;-84
2023/10/25 02:00:48;;;;;;;8.25;4.70;;;;;;;;;;5017043;28;20111;-84
2023/10/25 02:03:15;;;;;;;12.13;4.50;;;;;;;;;;5016783;28;20085;-83
2023/10/25 02:05:43;;;;;;;5.78;4.47;;;;;;;;;;5017595;28;20049;-84
2023/10/25 02:08:10;;;;;;;6.50;4.13;;;;;;;;;;5017147;28;20049;-84
2023/10/25 02:10:37;;;;;;;5.13;3.90;;;;;;;;;;5016385;28;20141;-83
2023/10/25 02:13:04;;;;;;;7.05;4.57;;;;;;;;;;5015216;28;20488;-84
2023/10/25 02:15:32;;;;;;;7.53;4.75;;;;;;;;;;5015519;28;20049;-84
2023/10/25 02:17:59;;;;;;;5.68;4.25;;;;;;;;;;5016793;28;20060;-84
2023/10/25 02:20:29;;;;;;;8.93;5.13;;;;;;;;;;5017322;28;20082;-84
2023/10/25 02:22:56;;;;;;;13.77;4.78;;;;;;;;;;5016611;28;20397;-84
2023/10/25 02:25:23;;;;;;;26.13;5.32;;;;;;;;;;5015499;28;20050;-84
2023/10/25 02:27:50;;;;;;;10.77;3.97;;;;;;;;;;5014958;28;20100;-84
2023/10/25 02:30:18;;;;;;;4.68;3.53;;;;;;;;;;5016773;28;20050;-84
2023/10/25 02:32:45;;;;;;;3.45;3.17;;;;;;;;;;5015821;28;20049;-84
2023/10/25 02:35:12;;;;;;;4.47;3.53;;;;;;;;;;5015060;28;20054;-84
2023/10/25 02:37:40;;;;;;;9.27;3.80;;;;;;;;;;5016734;28;20421;-84
2023/10/25 02:40:07;;;;;;;4.40;3.72;;;;;;;;;;5015347;28;20058;-83
2023/10/25 02:42:35;;;;;;;25.50;3.83;;;;;;;;;;5016505;28;20050;-83
2023/10/25 02:45:02;;;;;;;2.78;2.67;;;;;;;;;;5016769;28;20050;-84
2023/10/25 02:47:29;;;;;;;4.82;3.53;;;;;;;;;;5000273;28;20101;-84
2023/10/25 02:49:57;;;;;;;11.98;3.67;;;;;;;;;;4996892;28;20517;-84
2023/10/25 02:52:24;;;;;;;3.33;3.10;;;;;;;;;;4997400;28;20430;-83
2023/10/25 02:54:54;;;;;;;5.32;3.40;;;;;;;;;;4997423;28;20050;-82
2023/10/25 02:57:21;;;;;;;5.75;3.60;;;;;;;;;;4996970;28;20133;-84
2023/10/25 02:59:51;;;;;;;5.55;3.55;;;;;;;;;;4996521;28;20050;-84
2023/10/25 03:02:18;;;;;;;6.28;3.45;;;;;;;;;;4995617;28;20058;-84
2023/10/25 03:04:45;;;;;;;3.20;3.00;;;;;;;;;;4995495;28;20050;-84
2023/10/25 03:07:13;;;;;;;3.65;3.35;;;;;;;;;;4996971;28;20050;-84
2023/10/25 03:09:40;;;;;;;3.83;3.53;;;;;;;;;;4997034;28;20042;-84
2023/10/25 03:12:08;;;;;;;3.83;3.55;;;;;;;;;;4995246;28;20104;-84
2023/10/25 03:14:35;;;;;;;3.70;3.40;;;;;;;;;;5004105;28;20107;-83
2023/10/25 03:17:02;;;;;;;4.30;3.22;;;;;;;;;;5016206;28;20045;-84
2023/10/25 03:19:29;;;;;;;3.17;2.97;;;;;;;;;;5016726;28;20050;-84
2023/10/25 03:21:57;;;;;;;8.20;3.88;;;;;;;;;;5016581;28;20049;-83
2023/10/25 03:24:24;;;;;;;3.92;3.67;;;;;;;;;;5017449;28;20050;-84
2023/10/25 03:26:51;;;;;;;3.88;3.55;;;;;;;;;;5015556;28;20042;-84
2023/10/25 03:29:19;;;;;;;6.93;4.75;;;;;;;;;;5000815;28;20054;-84
2023/10/25 03:31:46;;;;;;;5.82;4.45;;;;;;;;;;4997573;28;20097;-84
2023/10/25 03:34:15;;;;;;;10.68;5.30;;;;;;;;;;4996007;28;20074;-84
2023/10/25 03:36:43;;;;;;;6.13;4.72;;;;;;;;;;4997078;28;20046;-84
2023/10/25 03:39:14;;;;;;;4.57;4.18;;;;;;;;;;4996429;28;20129;-84
2023/10/25 03:41:41;;;;;;;3.80;3.50;;;;;;;;;;4997281;28;20062;-84
2023/10/25 03:44:08;;;;;;;7.25;4.75;;;;;;;;;;4997255;28;20468;-84
2023/10/25 03:46:36;;;;;;;6.25;4.07;;;;;;;;;;4997730;28;20057;-84
2023/10/25 03:49:03;;;;;;;4.75;4.35;;;;;;;;;;4996242;28;20046;-84
2023/10/25 03:51:31;;;;;;;8.13;4.40;;;;;;;;;;4995851;28;20054;-84
2023/10/25 03:53:58;;;;;;;5.03;4.50;;;;;;;;;;5017161;28;20511;-84
2023/10/25 03:56:25;;;;;;;9.95;6.40;;;;;;;;;;5016732;28;20409;-84
2023/10/25 03:58:53;;;;;;;12.00;7.03;;;;;;;;;;5016836;28;20081;-84
2023/10/25 04:01:20;;;;;;;5.70;5.18;;;;;;;;;;5014494;28;20484;-84
2023/10/25 04:03:47;;;;;;;7.93;5.07;;;;;;;;;;5014543;28;20046;-84
2023/10/25 04:06:15;;;;;;;6.45;4.97;;;;;;;;;;5014260;28;20467;-84
2023/10/25 04:08:42;;;;;;;6.43;5.10;;;;;;;;;;5015414;28;20052;-84
2023/10/25 04:11:09;;;;;;;6.20;5.60;;;;;;;;;;5018700;28;20464;-84
2023/10/25 04:13:36;;;;;;;6.78;4.80;;;;;;;;;;5017523;28;20104;-83
2023/10/25 04:16:05;;;;;;;5.47;4.97;;;;;;;;;;5018874;28;20072;-84
2023/10/25 04:18:33;;;;;;;7.65;4.93;;;;;;;;;;5018966;28;20121;-84
2023/10/25 04:21:01;;;;;;;5.93;4.57;;;;;;;;;;5017589;28;20046;-84
2023/10/25 04:23:29;;;;;;;6.78;4.80;;;;;;;;;;5018996;28;20124;-84
2023/10/25 04:26:06;;;;;;;5.25;4.35;;;;;;;;;;5017822;28;20045;-84
2023/10/25 04:28:34;;;;;;;4.72;4.32;;;;;;;;;;5017073;28;20050;-83
2023/10/25 04:31:01;;;;;;;4.65;4.25;;;;;;;;;;5017059;28;20042;-83
2023/10/25 04:33:30;;;;;;;5.15;4.65;;;;;;;;;;5019061;28;20058;-84
2023/10/25 04:35:57;;;;;;;4.97;4.53;;;;;;;;;;5018928;28;20496;-84
2023/10/25 04:38:24;;;;;;;9.73;8.30;;;;;;;;;;5017045;28;20420;-84
2023/10/25 04:40:52;;;;;;;8.82;7.68;;;;;;;;;;5018534;28;20567;-83
2023/10/25 04:43:19;;;;;;;8.55;7.75;;;;;;;;;;5017922;28;20057;-84
2023/10/25 04:45:47;;;;;;;14.27;12.02;;;;;;;;;;5018474;28;20045;-84
2023/10/25 04:48:14;;;;;;;7.57;6.72;;;;;;;;;;5018053;28;20511;-84
2023/10/25 04:50:41;;;;;;;4.78;4.30;;;;;;;;;;5017904;28;20056;-84
2023/10/25 04:53:09;;;;;;;13.05;10.73;;;;;;;;;;5016718;28;20049;-84
2023/10/25 04:55:36;;;;;;;14.82;8.90;;;;;;;;;;5018412;28;20428;-83
2023/10/25 04:58:04;;;;;;;14.88;9.77;;;;;;;;;;5017544;28;20497;-83
2023/10/25 05:00:32;;;;;;;14.18;11.35;;;;;;;;;;5016436;28;20202;-84
2023/10/25 05:02:59;;;;;;;12.93;10.95;;;;;;;;;;5016309;28;20432;-84
2023/10/25 05:05:27;;;;;;;11.25;10.18;;;;;;;;;;5017238;28;20555;-84
2023/10/25 05:07:54;;;;;;;13.10;11.00;;;;;;;;;;5018284;28;20046;-84
2023/10/25 05:10:22;;;;;;;36.55;30.25;;;;;;;;;;5018258;28;20045;-84
2023/10/25 05:12:50;;;;;;;21.17;16.38;;;;;;;;;;5015913;28;20046;-84
2023/10/25 05:15:19;;;;;;;13.25;11.20;;;;;;;;;;5016795;28;20042;-84
2023/10/25 05:17:47;;;;;;;17.35;14.02;;;;;;;;;;5018029;28;20046;-84
2023/10/25 05:20:15;;;;;;;27.90;17.73;;;;;;;;;;5017343;28;20519;-84
2023/10/25 05:22:52;;;;;;;17.85;11.80;;;;;;;;;;5016991;28;20078;-84
2023/10/25 05:25:21;;;;;;;11.10;8.05;;;;;;;;;;5016425;28;20045;-84
2023/10/25 05:27:49;;;;;;;8.38;7.40;;;;;;;;;;5017121;28;20405;-84
2023/10/25 05:30:17;;;;;;;7.15;6.47;;;;;;;;;;5017331;28;20041;-83
2023/10/25 05:32:48;;;;;;;11.80;7.60;;;;;;;;;;5016686;28;20251;-84
2023/10/25 05:35:16;;;;;;;11.63;8.05;;;;;;;;;;5018210;28;20113;-84
2023/10/25 05:37:43;;;;;;;7.28;6.57;;;;;;;;;;5017871;28;20069;-84
2023/10/25 05:40:11;;;;;;;11.07;8.77;;;;;;;;;;5020786;28;20100;-84
2023/10/25 05:42:48;;;;;;;18.63;16.83;;;;;;;;;;5022092;28;20046;-83
2023/10/25 05:45:15;;;;;;;11.00;9.85;;;;;;;;;;5035304;28;20105;-84
2023/10/25 05:47:43;;;;;;;9.48;8.10;;;;;;;;;;5037673;28;20033;-83
2023/10/25 05:50:11;;;;;;;8.90;6.85;;;;;;;;;;5028617;28;20104;-84
2023/10/25 05:52:44;;;;;;;12.13;7.38;;;;;;;;;;5020781;28;20054;-84
2023/10/25 05:55:15;;;;;;;20.25;10.60;;;;;;;;;;5019637;28;20108;-83
2023/10/25 05:57:45;;;;;;;14.55;9.57;;;;;;;;;;5016181;28;20121;-84
2023/10/25 06:00:13;;;;;;;8.65;7.85;;;;;;;;;;5016221;28;20057;-84
2023/10/25 06:02:41;;;;;;;10.88;6.80;;;;;;;;;;5014362;28;20472;-84
2023/10/25 06:05:11;;;;;;;10.52;7.55;;;;;;;;;;5014790;28;20046;-84
2023/10/25 06:07:39;;;;;;;11.77;9.85;;;;;;;;;;5014864;28;20046;-83
2023/10/25 06:10:07;;;;;;;10.77;9.65;;;;;;;;;;5014195;28;20052;-83
2023/10/25 06:12:34;;;;;;;9.10;7.88;;;;;;;;;;5015721;28;20129;-83
2023/10/25 06:15:04;;;;;;;8.25;7.43;;;;;;;;;;5015732;28;20108;-84
2023/10/25 06:17:31;;;;;;;8.20;6.65;;;;;;;;;;5015464;28;20138;-83
2023/10/25 06:19:58;;;;;;;7.82;7.10;;;;;;;;;;5015877;28;20060;-84
2023/10/25 06:22:26;;;;;;;9.20;7.90;;;;;;;;;;5015282;28;20061;-84
2023/10/25 06:24:53;;;;;;;11.35;8.15;;;;;;;;;;5015561;28;20241;-83
2023/10/25 06:27:20;;;;;;;9.77;8.68;;;;;;;;;;5015091;28;20068;-83
2023/10/25 06:29:47;;;;;;;12.32;8.05;;;;;;;;;;5015799;28;20058;-83
2023/10/25 06:32:15;;;;;;;8.55;7.68;;;;;;;;;;5012858;28;20050;-84
2023/10/25 06:34:42;;;;;;;10.75;8.68;;;;;;;;;;5014815;28;20495;-83
2023/10/25 06:37:10;;;;;;;14.13;8.77;;;;;;;;;;5013626;28;20480;-84
2023/10/25 06:39:37;;;;;;;15.57;10.05;;;;;;;;;;5015932;28;20050;-83
2023/10/25 06:42:05;;;;;;;15.38;11.23;;;;;;;;;;5013857;28;20108;-83
2023/10/25 06:44:33;;;;;;;21.90;11.48;;;;;;;;;;5013479;28;20567;-83
2023/10/25 06:47:00;;;;;;;19.52;12.55;;;;;;;;;;5013803;28;20045;-84
2023/10/25 06:49:27;;;;;;;19.70;10.65;;;;;;;;;;5013551;28;20050;-84
2023/10/25 06:51:55;;;;;;;16.52;11.23;;;;;;;;;;5013239;28;20057;-84
2023/10/25 06:54:22;;;;;;;17.83;12.13;;;;;;;;;;5014817;28;20056;-84
2023/10/25 06:56:50;;;;;;;22.83;13.43;;;;;;;;;;5013264;28;20058;-84
2023/10/25 06:59:17;;;;;;;17.58;10.82;;;;;;;;;;5015382;28;20049;-84
2023/10/25 07:01:45;;;;;;;12.75;10.20;;;;;;;;;;5013779;28;20049;-84
2023/10/25 07:04:16;;;;;;;15.25;10.07;;;;;;;;;;5015396;28;20421;-85
2023/10/25 07:06:47;;;;;;;15.75;12.15;;;;;;;;;;5014702;28;20050;-83
2023/10/25 07:09:14;;;;;;;17.17;11.80;;;;;;;;;;5013698;28;20057;-84
2023/10/25 07:11:41;;;;;;;16.38;11.80;;;;;;;;;;5013742;28;20129;-84
2023/10/25 07:14:09;;;;;;;13.00;10.27;;;;;;;;;;5015106;28;20495;-84
2023/10/25 07:16:37;;;;;;;13.52;9.55;;;;;;;;;;5014540;28;20053;-84
2023/10/25 07:19:05;;;;;;;7.80;7.05;;;;;;;;;;5013175;28;20050;-85
2023/10/25 07:21:32;;;;;;;10.15;6.55;;;;;;;;;;5013932;28;20137;-84
2023/10/25 07:23:59;;;;;;;7.93;7.22;;;;;;;;;;5013749;28;20574;-84
2023/10/25 07:26:26;;;;;;;10.25;8.98;;;;;;;;;;5014115;28;20492;-84
2023/10/25 07:28:54;;;;;;;14.52;11.18;;;;;;;;;;5013159;28;20050;-84
2023/10/25 07:31:21;;;;;;;13.07;9.65;;;;;;;;;;5014291;28;20046;-84
2023/10/25 07:33:48;;;;;;;11.23;10.10;;;;;;;;;;5012944;28;20050;-84
2023/10/25 07:36:15;;;;;;;17.42;13.18;;;;;;;;;;5014743;28;20061;-85
2023/10/25 07:38:43;;;;;;;14.57;11.90;;;;;;;;;;5014207;28;20459;-84
2023/10/25 07:41:10;;;;;;;12.95;8.98;;;;;;;;;;5012891;28;20050;-84
2023/10/25 07:43:37;;;;;;;13.70;9.32;;;;;;;;;;5013527;28;20061;-84
2023/10/25 07:46:04;;;;;;;14.18;10.07;;;;;;;;;;5013753;28;20050;-84
2023/10/25 07:48:32;;;;;;;12.50;9.70;;;;;;;;;;5013446;28;20054;-85
2023/10/25 07:51:04;;;;;;;13.55;9.95;;;;;;;;;;5020565;28;20050;-85
2023/10/25 07:53:31;;;;;;;22.35;15.68;;;;;;;;;;5012651;28;20049;-84
2023/10/25 07:56:02;;;;;;;12.45;9.30;;;;;;;;;;5013373;28;20046;-84
2023/10/25 07:58:32;;;;;;;12.18;7.57;;;;;;;;;;5013690;28;20050;-84
2023/10/25 08:01:00;;;;;;;15.15;7.90;;;;;;;;;;5012125;28;20504;-84
2023/10/25 08:03:28;;;;;;;11.40;7.43;;;;;;;;;;5012937;28;20053;-85
2023/10/25 08:05:56;;;;;;;15.23;10.63;;;;;;;;;;5013212;28;20053;-84
2023/10/25 08:08:24;;;;;;;8.57;7.78;;;;;;;;;;5012435;28;20049;-84
2023/10/25 08:11:04;;;;;;;9.10;7.72;;;;;;;;;;5013197;28;20065;-84
2023/10/25 08:13:33;;;;;;;10.98;7.90;;;;;;;;;;5012338;28;20046;-85
2023/10/25 08:16:01;;;;;;;18.05;7.88;;;;;;;;;;5013740;28;20056;-85
2023/10/25 08:18:30;;;;;;;11.65;7.35;;;;;;;;;;5012093;28;20492;-85
2023/10/25 08:20:58;;;;;;;9.40;6.63;;;;;;;;;;5012859;28;20125;-84
2023/10/25 08:23:27;;;;;;;10.80;6.97;;;;;;;;;;5013129;28;20046;-85
2023/10/25 08:25:54;;;;;;;9.25;6.78;;;;;;;;;;5011803;28;20046;-84
2023/10/25 08:28:21;;;;;;;9.25;7.18;;;;;;;;;;5013043;28;20468;-84
2023/10/25 08:30:48;;;;;;;9.90;7.05;;;;;;;;;;5011933;28;20073;-84
2023/10/25 08:33:16;;;;;;;12.13;6.75;;;;;;;;;;5011843;28;20046;-84
2023/10/25 08:35:43;;;;;;;8.75;7.32;;;;;;;;;;5011934;28;20053;-84
2023/10/25 08:38:10;;;;;;;9.57;6.93;;;;;;;;;;5012360;28;20058;-84
2023/10/25 08:40:40;;;;;;;19.88;10.60;;;;;;;;;;5011964;28;20054;-85
2023/10/25 08:43:08;;;;;;;13.05;10.85;;;;;;;;;;5011434;28;20058;-84
2023/10/25 08:45:35;;;;;;;12.23;7.95;;;;;;;;;;5016626;28;20046;-83
2023/10/25 08:48:03;;;;;;;10.93;8.63;;;;;;;;;;5011645;28;20046;-84
2023/10/25 08:50:31;;;;;;;9.07;6.88;;;;;;;;;;5011905;28;20042;-84
2023/10/25 08:52:59;;;;;;;10.50;9.50;;;;;;;;;;5012758;28;20061;-84
2023/10/25 08:55:27;;;;;;;8.40;7.55;;;;;;;;;;5011546;28;20068;-84
2023/10/25 08:57:56;;;;;;;9.75;7.30;;;;;;;;;;5016056;28;20053;-84
2023/10/25 09:00:28;;;;;;;52.00;28.48;;;;;;;;;;5016316;28;20085;-84
2023/10/25 09:03:31;;;;;;;11.55;7.63;;;;;;;;;;5015252;28;20056;-84
2023/10/25 09:05:59;;;;;;;9.45;6.10;;;;;;;;;;5022760;28;20137;-83
2023/10/25 09:08:27;;;;;;;11.27;7.25;;;;;;;;;;5014725;28;20096;-84
2023/10/25 09:10:57;;;;;;;6.25;5.75;;;;;;;;;;5014759;28;20046;-84
2023/10/25 09:13:27;;;;;;;6.38;5.38;;;;;;;;;;5022807;28;20048;-84
2023/10/25 09:16:04;;;;;;;8.55;5.65;;;;;;;;;;5015647;28;20571;-84
2023/10/25 09:18:33;;;;;;;8.65;5.47;;;;;;;;;;5016123;28;20440;-84
2023/10/25 09:21:01;;;;;;;8.60;5.15;;;;;;;;;;5015931;28;20562;-84
2023/10/25 09:23:39;;;;;;;3.95;3.60;;;;;;;;;;5015912;28;20054;-83
2023/10/25 09:26:16;;;;;;;5.43;3.25;;;;;;;;;;5014545;28;20056;-84
2023/10/25 09:28:45;;;;;;;6.38;2.75;;;;;;;;;;5014522;28;20050;-84
2023/10/25 09:31:34;;;;;;;2.45;2.25;;;;;;;;;;5014542;28;20054;-82
2023/10/25 09:34:03;;;;;;;2.30;2.10;;;;;;;;;;5015486;28;20496;-83
2023/10/25 09:36:31;;;;;;;2.30;2.10;;;;;;;;;;5014379;28;20053;-82
2023/10/25 09:38:58;;;;;;;1.90;1.80;;;;;;;;;;5014022;28;20045;-82
2023/10/25 09:41:28;;;;;;;2.67;2.45;;;;;;;;;;5013939;28;20615;-82
2023/10/25 09:43:58;;;;;;;3.60;2.28;;;;;;;;;;5014169;28;20080;-83
2023/10/25 09:46:28;;;;;;;3.05;2.40;;;;;;;;;;4999119;28;20047;-83
2023/10/25 09:49:03;;;;;;;3.22;2.40;;;;;;;;;;4997123;28;20060;-83
2023/10/25 09:51:49;;;;;;;6.50;2.35;;;;;;;;;;5014038;28;20489;-82
2023/10/25 09:54:19;;;;;;;3.95;2.42;;;;;;;;;;5015580;28;20054;-83
2023/10/25 09:56:49;;;;;;;12.00;2.88;;;;;;;;;;5013911;28;20107;-82
2023/10/25 09:59:17;;;;;;;5.93;2.05;;;;;;;;;;5014180;28;20054;-83
2023/10/25 10:01:44;;;;;;;2.15;2.00;;;;;;;;;;5014741;28;20050;-82
2023/10/25 10:04:27;;;;;;;3.97;2.65;;;;;;;;;;5014957;28;20050;-82
2023/10/25 10:06:54;;;;;;;2.45;1.95;;;;;;;;;;5015478;28;20073;-82
2023/10/25 10:09:33;;;;;;;2.00;1.80;;;;;;;;;;5014814;28;20107;-83
2023/10/25 10:12:05;;;;;;;2.80;2.35;;;;;;;;;;5005924;28;20532;-82
2023/10/25 10:14:39;;;;;;;3.85;2.40;;;;;;;;;;5013598;28;20054;-82
2023/10/25 10:17:09;;;;;;;3.80;1.80;;;;;;;;;;5014446;28;20053;-81
2023/10/25 10:19:40;;;;;;;10.45;2.97;;;;;;;;;;5014548;28;20064;-82
2023/10/25 10:22:13;;;;;;;5.20;2.00;;;;;;;;;;5013181;28;20049;-82
2023/10/25 10:24:45;;;;;;;3.63;2.30;;;;;;;;;;5013247;28;20056;-80
2023/10/25 10:27:13;;;;;;;2.83;2.35;;;;;;;;;;5013285;28;20068;-80
2023/10/25 10:29:41;;;;;;;4.38;2.22;;;;;;;;;;5014391;28;20054;-81
2023/10/25 10:32:09;;;;;;;2.33;2.10;;;;;;;;;;5014749;28;20050;-80
2023/10/25 10:34:39;;;;;;;2.28;1.65;;;;;;;;;;5013505;28;20049;-80
2023/10/25 10:37:10;;;;;;;1.80;1.70;;;;;;;;;;5014281;28;20049;-81
2023/10/25 10:39:58;;;;;;;2.38;1.80;;;;;;;;;;5013076;28;20374;-80
2023/10/25 10:42:31;;;;;;;2.30;2.10;;;;;;;;;;5012697;28;20054;-80
2023/10/25 10:45:01;;;;;;;1.92;1.83;;;;;;;;;;5013419;28;20063;-80
2023/10/25 10:47:32;;;;;;;3.65;1.80;;;;;;;;;;5013536;28;20046;-80
2023/10/25 10:50:09;;;;;;;2.38;1.90;;;;;;;;;;5012958;28;20104;-80
2023/10/25 10:52:36;;;;;;;3.03;1.88;;;;;;;;;;5012950;28;20137;-79
2023/10/25 10:55:04;;;;;;;5.78;1.80;;;;;;;;;;5014862;28;20050;-80
2023/10/25 10:57:31;;;;;;;2.65;2.00;;;;;;;;;;5014781;28;20100;-80
2023/10/25 11:00:00;;;;;;;3.80;1.88;;;;;;;;;;5013346;28;20144;-80
2023/10/25 11:02:28;;;;;;;2.85;1.60;;;;;;;;;;5013434;28;20145;-80
2023/10/25 11:04:55;;;;;;;5.13;1.90;;;;;;;;;;5013577;28;20054;-80
2023/10/25 11:07:22;;;;;;;1.30;1.20;;;;;;;;;;5013881;28;20476;-80
2023/10/25 11:09:49;;;;;;;1.88;1.60;;;;;;;;;;5014598;28;20050;-80
2023/10/25 11:12:17;;;;;;;9.02;1.90;;;;;;;;;;5013186;28;20045;-81
2023/10/25 11:14:44;;;;;;;2.80;1.42;;;;;;;;;;5015616;28;20118;-80
2023/10/25 11:17:13;;;;;;;2.45;1.50;;;;;;;;;;5018133;28;20157;-81
2023/10/25 11:19:40;;;;;;;1.42;1.30;;;;;;;;;;5015120;28;20393;-79
2023/10/25 11:22:07;;;;;;;4.80;1.23;;;;;;;;;;5015996;28;20061;-82
2023/10/25 11:24:38;;;;;;;7.53;2.30;;;;;;;;;;5015929;28;20108;-80
2023/10/25 11:27:05;;;;;;;6.38;2.00;;;;;;;;;;5013940;28;20108;-81
2023/10/25 11:29:33;;;;;;;3.58;1.65;;;;;;;;;;5015319;28;20042;-81
2023/10/25 11:32:01;;;;;;;2.08;1.40;;;;;;;;;;5014358;28;20566;-81
2023/10/25 11:34:35;;;;;;;5.88;2.10;;;;;;;;;;5013672;28;20077;-80
2023/10/25 11:37:03;;;;;;;16.50;3.53;;;;;;;;;;5014218;28;20046;-79
2023/10/25 11:39:32;;;;;;;2.80;1.15;;;;;;;;;;5015692;28;20046;-80
2023/10/25 11:41:59;;;;;;;6.07;1.15;;;;;;;;;;5012662;28;20061;-79
2023/10/25 11:44:27;;;;;;;2.40;1.10;;;;;;;;;;5013687;28;20049;-80
2023/10/25 11:46:58;;;;;;;2.35;1.30;;;;;;;;;;5014285;28;20477;-81
2023/10/25 11:49:26;;;;;;;5.60;1.90;;;;;;;;;;5018838;28;20088;-80
2023/10/25 11:51:53;;;;;;;2.88;1.55;;;;;;;;;;5014146;28;20108;-80
2023/10/25 11:54:21;;;;;;;1.45;1.30;;;;;;;;;;5014076;28;20141;-80
2023/10/25 11:56:48;;;;;;;2.50;1.02;;;;;;;;;;5018649;28;20058;-80
2023/10/25 11:59:16;;;;;;;4.70;2.38;;;;;;;;;;5013576;28;20053;-79
2023/10/25 12:01:44;;;;;;;9.73;2.42;;;;;;;;;;5013177;28;20096;-80
2023/10/25 12:04:11;;;;;;;7.00;1.52;;;;;;;;;;5014202;28;20050;-79
2023/10/25 12:06:39;;;;;;;1.70;1.60;;;;;;;;;;5015041;28;20045;-80
2023/10/25 12:09:06;;;;;;;9.77;1.42;;;;;;;;;;5014300;28;20072;-81
2023/10/25 12:11:33;;;;;;;4.28;1.48;;;;;;;;;;5012713;28;20050;-80
2023/10/25 12:14:02;;;;;;;1.58;1.45;;;;;;;;;;5005149;28;20050;-82
2023/10/25 12:16:30;;;;;;;1.45;1.27;;;;;;;;;;5013602;28;20419;-82
2023/10/25 12:18:58;;;;;;;1.23;1.17;;;;;;;;;;5012755;28;20050;-84
2023/10/25 12:21:25;;;;;;;3.25;1.48;;;;;;;;;;5013074;28;20053;-83
2023/10/25 12:23:52;;;;;;;6.60;1.27;;;;;;;;;;5011207;28;20057;-82
2023/10/25 12:26:19;;;;;;;2.80;1.40;;;;;;;;;;5012553;28;20105;-81
2023/10/25 12:28:47;;;;;;;3.75;1.30;;;;;;;;;;5012681;28;20050;-80
2023/10/25 12:31:14;;;;;;;5.05;1.05;;;;;;;;;;5013412;28;20127;-79
2023/10/25 12:33:41;;;;;;;2.28;1.17;;;;;;;;;;5016519;28;20050;-82
2023/10/25 12:36:09;;;;;;;3.25;0.93;;;;;;;;;;5016406;28;20512;-79
2023/10/25 12:38:36;;;;;;;1.00;1.00;;;;;;;;;;5015419;28;20053;-79
2023/10/25 12:41:03;;;;;;;1.20;0.98;;;;;;;;;;5015754;28;20504;-80
2023/10/25 12:43:30;;;;;;;4.93;1.50;;;;;;;;;;5016906;28;20471;-80
2023/10/25 12:45:58;;;;;;;9.30;1.17;;;;;;;;;;5016377;28;20050;-80
2023/10/25 12:48:25;;;;;;;4.95;1.40;;;;;;;;;;5016761;28;20042;-81
2023/10/25 12:50:54;;;;;;;2.55;0.77;;;;;;;;;;5014921;28;20057;-80
2023/10/25 12:53:22;;;;;;;4.25;1.02;;;;;;;;;;5015585;28;20104;-81
2023/10/25 12:55:49;;;;;;;1.70;1.52;;;;;;;;;;5015265;28;20574;-83
2023/10/25 12:58:16;;;;;;;2.42;1.00;;;;;;;;;;5018200;28;20049;-83
2023/10/25 13:00:44;;;;;;;11.07;1.40;;;;;;;;;;5015898;28;20053;-83
2023/10/25 13:03:12;;;;;;;1.63;1.20;;;;;;;;;;5016480;28;20049;-81
2023/10/25 13:05:40;;;;;;;1.67;1.10;;;;;;;;;;5016310;28;20046;-81
2023/10/25 13:08:09;;;;;;;5.55;1.00;;;;;;;;;;5015605;28;20089;-81
2023/10/25 13:10:36;;;;;;;1.98;0.90;;;;;;;;;;5015955;28;20500;-80
2023/10/25 13:13:03;;;;;;;1.45;0.90;;;;;;;;;;5014333;28;20056;-81
2023/10/25 13:15:30;;;;;;;3.25;0.93;;;;;;;;;;5014487;28;20104;-81
2023/10/25 13:17:58;;;;;;;0.85;0.80;;;;;;;;;;5015298;28;20119;-82
2023/10/25 13:20:27;;;;;;;0.73;0.70;;;;;;;;;;5014781;28;20062;-81
2023/10/25 13:22:54;;;;;;;2.42;1.75;;;;;;;;;;5014316;28;20128;-81
2023/10/25 13:25:23;;;;;;;10.93;3.10;;;;;;;;;;5015356;28;20053;-82
2023/10/25 13:27:50;;;;;;;8.65;2.50;;;;;;;;;;5014309;28;20053;-81
2023/10/25 13:30:18;;;;;;;9.93;1.80;;;;;;;;;;5013984;28;20058;-80
2023/10/25 13:32:45;;;;;;;8.65;2.35;;;;;;;;;;5014351;28;20112;-82
2023/10/25 13:35:12;;;;;;;8.43;2.00;;;;;;;;;;5015764;28;20053;-82
2023/10/25 13:37:42;;;;;;;24.27;2.60;;;;;;;;;;5015759;28;20566;-80
2023/10/25 13:40:10;;;;;;;7.05;1.90;;;;;;;;;;5014648;28;20058;-82
2023/10/25 13:42:37;;;;;;;6.55;3.40;;;;;;;;;;5014385;28;20069;-81
2023/10/25 13:45:05;;;;;;;2.58;1.60;;;;;;;;;;5015216;28;20050;-82
2023/10/25 13:47:33;;;;;;;9.23;2.00;;;;;;;;;;5013968;28;20125;-82
2023/10/25 13:50:00;;;;;;;2.80;1.48;;;;;;;;;;5013733;28;20046;-81
2023/10/25 13:52:28;;;;;;;1.77;1.05;;;;;;;;;;5017642;28;20046;-81
2023/10/25 13:54:55;;;;;;;2.70;1.40;;;;;;;;;;5013998;28;20042;-81
2023/10/25 13:57:22;;;;;;;4.53;1.80;;;;;;;;;;5014140;28;20468;-82
2023/10/25 13:59:49;;;;;;;3.53;2.28;;;;;;;;;;5015542;28;20116;-82
2023/10/25 14:02:16;;;;;;;10.20;8.95;;;;;;;;;;5015865;28;20569;-82
2023/10/25 14:04:44;;;;;;;2.67;1.65;;;;;;;;;;5014132;28;20104;-82
2023/10/25 14:07:11;;;;;;;9.90;7.80;;;;;;;;;;5014182;28;20049;-82
2023/10/25 14:09:38;;;;;;;1.60;1.45;;;;;;;;;;5013998;28;20073;-82
2023/10/25 14:12:06;;;;;;;3.17;1.42;;;;;;;;;;5013767;28;20053;-82
2023/10/25 14:14:33;;;;;;;1.33;1.23;;;;;;;;;;5014007;28;20045;-82
2023/10/25 14:17:01;;;;;;;2.75;1.70;;;;;;;;;;5015289;28;20145;-82
2023/10/25 14:19:28;;;;;;;1.70;1.60;;;;;;;;;;5015213;28;20448;-81
2023/10/25 14:21:55;;;;;;;1.90;1.77;;;;;;;;;;5013811;28;20053;-81
2023/10/25 14:24:22;;;;;;;2.80;1.88;;;;;;;;;;5014503;28;20053;-82
2023/10/25 14:26:56;;;;;;;7.72;3.25;;;;;;;;;;5013195;28;20497;-82
2023/10/25 14:29:23;;;;;;;5.20;2.60;;;;;;;;;;5014348;28;20046;-82
2023/10/25 14:31:51;;;;;;;8.05;3.25;;;;;;;;;;5013530;28;20073;-81
2023/10/25 14:34:18;;;;;;;3.75;2.00;;;;;;;;;;5014861;28;20057;-82
2023/10/25 14:36:45;;;;;;;7.75;2.30;;;;;;;;;;5013119;28;20049;-81
2023/10/25 14:39:13;;;;;;;2.53;2.40;;;;;;;;;;5014175;28;20492;-81
2023/10/25 14:41:40;;;;;;;2.45;2.10;;;;;;;;;;5014242;28;20106;-82
2023/10/25 14:44:07;;;;;;;3.45;2.60;;;;;;;;;;5014288;28;20054;-82